Time;durP1;ratioP1;P1;durP2;ratioP2;P2;SDS_P1;SDS_P2;PMS_P1;PMS_P2;Temp;Humidity;BMP_temperature;BMP_pressure;BME280_temperature;BME280_humidity;BME280_pressure;Samples;Min_cycle;Max_cycle;Signal;HPM_P1;HPM_P2
2021/09/25 00:01:59;;;;;;;4.78;4.13;;;;;;;15.05;89.51;100541.88;5093097;28;20395;-64
2021/09/25 00:04:25;;;;;;;5.57;3.67;;;;;;;15.00;89.82;100545.06;5093225;28;20020;-65
2021/09/25 00:06:52;;;;;;;4.90;4.22;;;;;;;14.95;89.57;100543.84;5091545;28;20030;-64
2021/09/25 00:09:17;;;;;;;4.82;3.90;;;;;;;14.91;89.90;100542.47;5093136;28;20102;-64
2021/09/25 00:11:43;;;;;;;5.22;3.97;;;;;;;14.89;89.97;100549.88;5091726;28;20456;-65
2021/09/25 00:14:09;;;;;;;5.60;4.22;;;;;;;14.85;90.04;100549.34;5092838;28;20533;-64
2021/09/25 00:16:34;;;;;;;5.50;4.43;;;;;;;14.82;90.08;100551.50;5092683;28;20078;-63
2021/09/25 00:19:01;;;;;;;6.85;4.43;;;;;;;14.73;90.35;100544.31;5092693;28;20110;-64
2021/09/25 00:21:27;;;;;;;5.70;4.30;;;;;;;14.73;90.57;100555.13;5092544;28;20024;-64
2021/09/25 00:23:53;;;;;;;6.68;4.50;;;;;;;14.70;90.58;100556.28;5092793;28;20026;-64
2021/09/25 00:26:19;;;;;;;5.13;4.38;;;;;;;14.64;91.47;100561.47;5091437;28;20024;-64
2021/09/25 00:28:45;;;;;;;5.60;4.10;;;;;;;14.64;91.42;100559.59;5091404;28;20647;-64
2021/09/25 00:31:10;;;;;;;4.72;4.22;;;;;;;14.64;92.13;100556.91;5092397;28;20042;-64
2021/09/25 00:33:36;;;;;;;5.47;4.38;;;;;;;14.62;92.32;100547.28;5092582;28;20109;-64
2021/09/25 00:36:01;;;;;;;4.30;3.90;;;;;;;14.65;91.89;100547.81;5092642;28;20028;-65
2021/09/25 00:38:27;;;;;;;6.30;5.25;;;;;;;14.63;92.38;100555.22;5093351;28;20055;-64
2021/09/25 00:40:53;;;;;;;5.68;4.50;;;;;;;14.60;92.64;100554.66;5091851;28;20022;-65
2021/09/25 00:43:18;;;;;;;6.75;4.82;;;;;;;14.53;92.31;100554.44;5092674;28;20020;-66
2021/09/25 00:45:44;;;;;;;5.72;4.47;;;;;;;14.59;92.66;100571.88;5092202;28;20115;-66
2021/09/25 00:48:09;;;;;;;5.15;4.63;;;;;;;14.59;92.80;100577.28;5107798;28;20518;-65
2021/09/25 00:50:35;;;;;;;5.18;4.38;;;;;;;14.55;92.95;100562.41;5092123;28;20038;-65
2021/09/25 00:53:00;;;;;;;5.35;4.45;;;;;;;14.47;92.52;100548.81;5091723;28;20049;-67
2021/09/25 00:55:26;;;;;;;7.00;5.13;;;;;;;14.58;92.83;100568.34;5092023;28;20028;-66
2021/09/25 00:57:58;;;;;;;6.07;4.68;;;;;;;14.56;92.99;100564.94;5091978;28;20048;-65
2021/09/25 01:00:23;;;;;;;5.03;4.30;;;;;;;14.58;92.24;100567.50;5091615;28;20036;-67
2021/09/25 01:02:49;;;;;;;7.38;5.43;;;;;;;14.58;92.43;100562.09;5091760;28;20038;-64
2021/09/25 01:05:17;;;;;;;6.13;4.90;;;;;;;14.56;93.03;100570.34;5091750;28;20040;-64
2021/09/25 01:07:43;;;;;;;6.63;4.78;;;;;;;14.56;92.94;100580.28;5091672;28;20385;-67
2021/09/25 01:10:09;;;;;;;7.30;4.85;;;;;;;14.55;92.78;100578.59;5091262;28;20024;-66
2021/09/25 01:12:35;;;;;;;5.47;4.45;;;;;;;14.49;92.83;100579.19;5091590;28;20039;-66
2021/09/25 01:15:00;;;;;;;5.85;4.57;;;;;;;14.50;92.99;100586.28;5091131;28;20526;-66
2021/09/25 01:17:26;;;;;;;5.75;4.75;;;;;;;14.50;93.04;100591.69;5091372;28;20048;-66
2021/09/25 01:19:51;;;;;;;7.22;5.30;;;;;;;14.44;93.49;100587.75;5091354;28;20038;-66
2021/09/25 01:22:17;;;;;;;5.00;4.50;;;;;;;14.43;93.28;100586.06;5091702;28;20035;-66
2021/09/25 01:24:42;;;;;;;8.75;6.07;;;;;;;14.39;93.72;100595.47;5090248;28;20023;-66
2021/09/25 01:27:08;;;;;;;7.55;5.40;;;;;;;14.39;94.22;100591.91;5091540;28;20408;-66
2021/09/25 01:29:35;;;;;;;7.63;5.53;;;;;;;14.36;93.91;100589.50;5091641;28;20519;-66
2021/09/25 01:32:01;;;;;;;7.78;5.28;;;;;;;14.36;94.23;100587.69;5091308;28;20058;-66
2021/09/25 01:34:27;;;;;;;7.70;5.78;;;;;;;14.39;94.23;100606.25;5091211;28;20024;-66
2021/09/25 01:36:52;;;;;;;7.13;5.70;;;;;;;14.35;94.13;100585.97;5091359;28;20058;-66
2021/09/25 01:39:18;;;;;;;7.22;5.75;;;;;;;14.36;94.61;100593.06;5107140;28;20047;-66
2021/09/25 01:41:44;;;;;;;7.57;5.70;;;;;;;14.32;94.57;100590.81;5091348;28;20024;-66
2021/09/25 01:44:10;;;;;;;8.73;5.68;;;;;;;14.32;95.37;100596.22;5089853;28;20051;-66
2021/09/25 01:46:35;;;;;;;5.50;4.90;;;;;;;14.31;95.27;100600.75;5089773;28;20051;-67
2021/09/25 01:49:01;;;;;;;9.07;6.03;;;;;;;14.24;95.10;100593.41;5089593;28;20028;-67
2021/09/25 01:51:27;;;;;;;7.72;5.38;;;;;;;14.31;95.24;100600.75;5091062;28;20086;-64
2021/09/25 01:53:52;;;;;;;8.85;5.55;;;;;;;14.26;95.12;100599.53;5089776;28;20032;-67
2021/09/25 01:56:18;;;;;;;7.72;5.15;;;;;;;14.29;95.48;100608.19;5091035;28;20035;-67
2021/09/25 01:58:43;;;;;;;6.72;5.20;;;;;;;14.29;95.52;100612.72;5090803;28;20039;-64
2021/09/25 02:01:10;;;;;;;7.68;5.75;;;;;;;14.28;95.71;100608.31;5091207;28;20399;-67
2021/09/25 02:03:36;;;;;;;7.43;5.65;;;;;;;14.28;95.79;100608.31;5091273;28;20408;-67
2021/09/25 02:06:11;;;;;;;5.93;5.15;;;;;;;14.27;95.33;100614.69;5091316;28;20030;-66
2021/09/25 02:08:40;;;;;;;7.38;5.85;;;;;;;14.21;94.94;100605.34;5091377;28;20027;-67
2021/09/25 02:11:06;;;;;;;7.68;5.75;;;;;;;14.23;94.75;100616.00;5091240;28;20031;-67
2021/09/25 02:13:32;;;;;;;10.15;5.50;;;;;;;14.17;94.47;100613.88;5091097;28;20365;-67
2021/09/25 02:15:58;;;;;;;7.18;5.93;;;;;;;14.19;94.54;100612.72;5090917;28;20056;-67
2021/09/25 02:18:25;;;;;;;8.32;5.47;;;;;;;14.15;95.15;100608.63;5091362;28;20038;-66
2021/09/25 02:20:51;;;;;;;7.90;5.78;;;;;;;14.19;95.38;100626.22;5090966;28;20357;-67
2021/09/25 02:23:17;;;;;;;8.32;5.47;;;;;;;14.10;95.45;100610.94;5090681;28;20031;-65
2021/09/25 02:25:43;;;;;;;6.40;5.65;;;;;;;14.17;95.66;100617.44;5091042;28;20032;-66
2021/09/25 02:28:08;;;;;;;6.65;5.55;;;;;;;14.17;95.86;100625.53;5091203;28;20059;-66
2021/09/25 02:30:34;;;;;;;8.88;6.22;;;;;;;14.14;95.68;100624.97;5090943;28;20027;-66
2021/09/25 02:33:00;;;;;;;7.65;5.10;;;;;;;14.18;95.82;100631.78;5091023;28;20039;-66
2021/09/25 02:35:25;;;;;;;6.68;5.03;;;;;;;14.17;95.97;100649.81;5089626;28;20109;-64
2021/09/25 02:37:51;;;;;;;9.88;6.00;;;;;;;14.17;95.89;100632.75;5090595;28;20036;-65
2021/09/25 02:40:18;;;;;;;8.80;5.57;;;;;;;14.14;96.18;100631.22;5090779;28;20047;-65
2021/09/25 02:42:44;;;;;;;5.85;4.63;;;;;;;14.17;96.35;100633.63;5090767;28;20476;-65
2021/09/25 02:45:11;;;;;;;8.10;6.10;;;;;;;14.14;95.69;100643.84;5090569;28;20034;-65
2021/09/25 02:47:37;;;;;;;9.45;5.95;;;;;;;14.06;95.71;100633.81;5090459;28;20613;-65
2021/09/25 02:50:06;;;;;;;6.88;5.20;;;;;;;14.12;95.63;100645.88;5089374;28;20036;-65
2021/09/25 02:52:31;;;;;;;8.45;5.72;;;;;;;14.07;95.20;100651.69;5090504;28;20028;-65
2021/09/25 02:54:57;;;;;;;6.50;5.13;;;;;;;14.01;95.37;100655.00;5090440;28;20047;-65
2021/09/25 02:57:22;;;;;;;6.72;5.28;;;;;;;14.01;95.40;100660.38;5089253;28;20024;-65
2021/09/25 02:59:48;;;;;;;7.10;5.22;;;;;;;13.95;95.27;100663.66;5090045;28;20074;-65
2021/09/25 03:02:13;;;;;;;7.13;5.05;;;;;;;13.93;95.33;100664.81;5090486;28;20035;-65
2021/09/25 03:04:39;;;;;;;8.07;5.82;;;;;;;13.93;95.66;100679.13;5089069;28;20459;-65
2021/09/25 03:07:04;;;;;;;7.30;5.30;;;;;;;13.92;96.02;100679.28;5090434;28;20027;-65
2021/09/25 03:09:30;;;;;;;7.28;5.32;;;;;;;13.89;95.67;100677.72;5089376;28;20027;-65
2021/09/25 03:11:55;;;;;;;5.75;5.15;;;;;;;13.81;95.47;100674.94;5090271;28;20064;-65
2021/09/25 03:14:21;;;;;;;7.68;5.72;;;;;;;13.83;95.10;100691.78;5088974;28;20028;-65
2021/09/25 03:16:46;;;;;;;6.95;5.68;;;;;;;13.80;95.20;100689.41;5089773;28;20395;-65
2021/09/25 03:19:12;;;;;;;6.75;4.88;;;;;;;13.71;95.16;100680.34;5090400;28;20024;-65
2021/09/25 03:21:37;;;;;;;7.40;5.38;;;;;;;13.67;95.04;100680.78;5088757;28;20024;-65
2021/09/25 03:24:03;;;;;;;6.70;5.80;;;;;;;13.61;94.88;100682.22;5090173;28;20031;-65
2021/09/25 03:26:29;;;;;;;9.68;5.82;;;;;;;13.62;94.88;100689.31;5090222;28;20349;-65
2021/09/25 03:28:55;;;;;;;6.50;5.18;;;;;;;13.53;94.91;100679.41;5089850;28;20040;-64
2021/09/25 03:31:20;;;;;;;7.85;5.13;;;;;;;13.53;95.35;100690.19;5089893;28;20165;-64
2021/09/25 03:33:46;;;;;;;8.60;5.60;;;;;;;13.49;94.18;100691.47;5089021;28;20024;-64
2021/09/25 03:36:11;;;;;;;8.10;5.75;;;;;;;13.48;94.51;100699.69;5088680;28;20032;-64
2021/09/25 03:38:37;;;;;;;6.82;5.05;;;;;;;13.44;94.76;100700.97;5090118;28;20026;-64
2021/09/25 03:41:03;;;;;;;6.63;5.78;;;;;;;13.40;94.64;100707.63;5090063;28;20026;-64
2021/09/25 03:43:29;;;;;;;6.47;5.38;;;;;;;13.32;95.45;100702.13;5089990;28;20031;-64
2021/09/25 03:45:55;;;;;;;8.35;5.18;;;;;;;13.26;95.52;100702.69;5089615;28;20032;-64
2021/09/25 03:48:20;;;;;;;7.10;4.95;;;;;;;13.24;95.95;100705.53;5089772;28;20585;-64
2021/09/25 03:50:46;;;;;;;7.63;5.18;;;;;;;13.27;95.64;100720.53;5089878;28;20036;-64
2021/09/25 03:53:11;;;;;;;9.82;5.55;;;;;;;13.19;95.36;100715.84;5088519;28;20491;-66
2021/09/25 03:55:37;;;;;;;11.05;5.88;;;;;;;13.20;94.76;100714.03;5088458;28;20035;-66
2021/09/25 03:58:02;;;;;;;6.70;5.30;;;;;;;13.17;95.08;100717.88;5088498;28;20028;-65
2021/09/25 04:00:28;;;;;;;9.15;5.03;;;;;;;13.12;95.41;100713.88;5089811;28;20025;-65
2021/09/25 04:02:54;;;;;;;8.70;5.95;;;;;;;13.09;95.35;100714.19;5088460;28;20051;-66
2021/09/25 04:05:21;;;;;;;8.00;5.75;;;;;;;13.01;95.43;100706.78;5088565;28;20039;-65
2021/09/25 04:07:47;;;;;;;8.57;5.45;;;;;;;13.01;95.95;100708.63;5089711;28;20024;-65
2021/09/25 04:10:15;;;;;;;8.77;5.32;;;;;;;13.00;95.72;100710.47;5088448;28;20035;-64
2021/09/25 04:12:41;;;;;;;10.23;5.80;;;;;;;12.98;95.89;100717.81;5088197;28;20472;-65
2021/09/25 04:15:08;;;;;;;7.75;5.28;;;;;;;12.96;96.01;100722.47;5089570;28;20094;-65
2021/09/25 04:17:35;;;;;;;11.32;5.50;;;;;;;12.92;96.41;100714.81;5089543;28;20044;-65
2021/09/25 04:20:02;;;;;;;9.73;6.32;;;;;;;12.88;96.67;100716.09;5089378;28;20043;-64
2021/09/25 04:22:28;;;;;;;8.63;6.53;;;;;;;12.89;96.41;100724.03;5089653;28;20483;-65
2021/09/25 04:24:53;;;;;;;6.97;5.40;;;;;;;12.81;97.25;100726.59;5089380;28;20021;-66
2021/09/25 04:27:19;;;;;;;8.48;5.57;;;;;;;12.89;97.66;100736.63;5088219;28;20024;-66
2021/09/25 04:29:44;;;;;;;9.00;6.00;;;;;;;12.85;98.03;100732.53;5089492;28;20040;-66
2021/09/25 04:32:09;;;;;;;8.52;5.90;;;;;;;12.85;98.62;100736.06;5089593;28;20035;-66
2021/09/25 04:34:35;;;;;;;7.72;5.95;;;;;;;12.81;99.14;100728.41;5089603;28;20035;-66
2021/09/25 04:37:00;;;;;;;8.32;6.47;;;;;;;12.79;99.57;100733.94;5089649;28;20063;-66
2021/09/25 04:39:26;;;;;;;8.43;6.55;;;;;;;12.82;100.00;100741.72;5089395;28;20024;-63
2021/09/25 04:41:52;;;;;;;8.57;6.88;;;;;;;12.84;100.00;100752.38;5089364;28;20036;-64
2021/09/25 04:44:18;;;;;;;8.60;6.90;;;;;;;12.83;100.00;100750.66;5089487;28;20023;-64
2021/09/25 04:46:45;;;;;;;9.50;7.35;;;;;;;12.79;100.00;100744.69;5092752;28;20061;-65
2021/09/25 04:49:11;;;;;;;14.52;8.10;;;;;;;12.85;100.00;100754.06;5092953;28;20032;-64
2021/09/25 04:51:37;;;;;;;11.73;7.53;;;;;;;12.81;100.00;100753.50;5090951;28;20146;-64
2021/09/25 04:54:03;;;;;;;9.57;7.15;;;;;;;12.81;100.00;100752.63;5092791;28;20472;-64
2021/09/25 04:56:30;;;;;;;11.32;8.05;;;;;;;12.87;100.00;100768.25;5092696;28;20548;-64
2021/09/25 04:58:55;;;;;;;11.27;8.07;;;;;;;12.81;100.00;100763.41;5092901;28;20053;-63
2021/09/25 05:01:21;;;;;;;10.82;8.18;;;;;;;12.89;100.00;100777.88;5091530;28;20733;-64
2021/09/25 05:03:48;;;;;;;11.25;7.90;;;;;;;12.89;100.00;100766.25;5092833;28;20028;-65
2021/09/25 05:06:13;;;;;;;11.43;8.98;;;;;;;12.97;100.00;100774.50;5091417;28;20361;-64
2021/09/25 05:08:39;;;;;;;12.93;8.88;;;;;;;12.99;100.00;100759.06;5092794;28;20027;-65
2021/09/25 05:11:05;;;;;;;14.13;8.75;;;;;;;13.00;100.00;100753.53;5092597;28;20042;-65
2021/09/25 05:13:30;;;;;;;14.45;9.30;;;;;;;13.07;100.00;100761.94;5092425;28;20039;-65
2021/09/25 05:15:55;;;;;;;12.43;8.88;;;;;;;13.09;100.00;100765.34;5090913;28;20055;-66
2021/09/25 05:18:21;;;;;;;13.13;9.52;;;;;;;13.13;100.00;100753.28;5091390;28;20024;-66
2021/09/25 05:20:47;;;;;;;13.98;9.55;;;;;;;13.19;100.00;100768.91;5092606;28;20120;-66
2021/09/25 05:23:12;;;;;;;13.77;9.30;;;;;;;13.18;100.00;100765.34;5092324;28;20473;-66
2021/09/25 05:25:38;;;;;;;12.25;10.10;;;;;;;13.24;100.00;100767.47;5092607;28;20073;-66
2021/09/25 05:28:03;;;;;;;12.00;9.15;;;;;;;13.32;100.00;100777.56;5092119;28;20024;-67
2021/09/25 05:30:29;;;;;;;14.35;9.88;;;;;;;13.29;100.00;100767.88;5092280;28;20077;-66
2021/09/25 05:32:55;;;;;;;13.68;9.15;;;;;;;13.34;100.00;100771.03;5092211;28;20045;-67
2021/09/25 05:35:21;;;;;;;12.73;9.98;;;;;;;13.41;100.00;100776.69;5090406;28;20274;-67
2021/09/25 05:37:46;;;;;;;14.93;9.93;;;;;;;13.49;100.00;100782.22;5090805;28;20040;-67
2021/09/25 05:40:12;;;;;;;12.73;9.85;;;;;;;13.51;100.00;100778.41;5090592;28;20139;-67
2021/09/25 05:42:38;;;;;;;12.68;9.82;;;;;;;13.58;100.00;100782.22;5092143;28;20035;-67
2021/09/25 05:45:07;;;;;;;14.35;9.82;;;;;;;13.61;100.00;100786.50;5090663;28;20369;-67
2021/09/25 05:47:32;;;;;;;17.15;10.90;;;;;;;13.65;100.00;100775.25;5090765;28;20034;-66
2021/09/25 05:49:58;;;;;;;15.75;10.80;;;;;;;13.67;100.00;100780.50;5091121;28;20024;-67
2021/09/25 05:52:23;;;;;;;15.48;10.95;;;;;;;13.77;100.00;100792.16;5091874;28;20063;-66
2021/09/25 05:54:49;;;;;;;16.60;9.93;;;;;;;13.84;100.00;100790.59;5090994;28;20039;-67
2021/09/25 05:57:14;;;;;;;14.25;10.40;;;;;;;13.89;100.00;100791.00;5090639;28;20024;-66
2021/09/25 05:59:40;;;;;;;15.93;10.55;;;;;;;13.98;100.00;100784.75;5091783;28;20032;-67
2021/09/25 06:02:06;;;;;;;17.33;9.48;;;;;;;14.07;100.00;100789.28;5091869;28;20314;-66
2021/09/25 06:04:33;;;;;;;13.88;10.18;;;;;;;14.16;100.00;100798.31;5091576;28;20066;-66
2021/09/25 06:06:59;;;;;;;13.05;9.45;;;;;;;14.24;100.00;100793.94;5091664;28;20081;-67
2021/09/25 06:09:24;;;;;;;15.88;9.95;;;;;;;14.37;100.00;100807.09;5091215;28;20032;-67
2021/09/25 06:11:51;;;;;;;13.00;10.02;;;;;;;14.42;100.00;100792.19;5089787;28;20060;-67
2021/09/25 06:14:17;;;;;;;13.60;10.07;;;;;;;14.58;99.96;100799.63;5091228;28;20032;-66
2021/09/25 06:16:43;;;;;;;11.27;9.40;;;;;;;14.67;99.75;100796.88;5091021;28;20054;-66
2021/09/25 06:19:08;;;;;;;16.20;10.32;;;;;;;14.78;99.18;100787.75;5091200;28;20427;-66
2021/09/25 06:21:34;;;;;;;14.73;9.70;;;;;;;14.92;98.67;100808.84;5091086;28;20027;-66
2021/09/25 06:23:59;;;;;;;15.88;9.60;;;;;;;15.03;98.11;100812.19;5090750;28;20024;-67
2021/09/25 06:26:25;;;;;;;14.27;10.07;;;;;;;15.21;97.53;100810.38;5091058;28;20024;-66
2021/09/25 06:28:50;;;;;;;11.80;9.40;;;;;;;15.30;97.54;100805.91;5089665;28;20515;-66
2021/09/25 06:31:18;;;;;;;13.05;9.57;;;;;;;15.55;95.97;100811.44;5090966;28;20035;-66
2021/09/25 06:33:44;;;;;;;11.82;9.27;;;;;;;15.68;95.42;100801.06;5090829;28;20032;-66
2021/09/25 06:36:10;;;;;;;12.15;9.43;;;;;;;15.92;94.09;100811.25;5090861;28;20032;-66
2021/09/25 06:38:36;;;;;;;14.20;9.90;;;;;;;16.14;92.59;100816.19;5090631;28;20039;-67
2021/09/25 06:41:01;;;;;;;17.52;9.80;;;;;;;16.40;90.50;100811.63;5089324;28;20077;-67
2021/09/25 06:43:26;;;;;;;13.52;8.75;;;;;;;16.55;89.93;100809.19;5090888;28;20020;-65
2021/09/25 06:45:52;;;;;;;12.20;8.57;;;;;;;16.76;88.84;100809.63;5089264;28;20032;-67
2021/09/25 06:48:17;;;;;;;11.63;9.10;;;;;;;17.03;86.88;100820.25;5090501;28;20024;-67
2021/09/25 06:50:43;;;;;;;12.48;8.85;;;;;;;17.18;86.49;100803.19;5090526;28;20099;-67
2021/09/25 06:53:08;;;;;;;12.68;9.18;;;;;;;17.43;84.76;100802.28;5090607;28;20028;-66
2021/09/25 06:55:34;;;;;;;12.20;8.75;;;;;;;17.71;82.56;100797.41;5090599;28;20039;-67
2021/09/25 06:57:59;;;;;;;20.00;9.02;;;;;;;17.87;82.27;100798.22;5090382;28;20047;-67
2021/09/25 07:00:25;;;;;;;11.77;8.48;;;;;;;18.03;81.23;100797.41;5090352;28;20032;-67
2021/09/25 07:02:50;;;;;;;10.20;8.32;;;;;;;18.25;80.20;100796.66;5090356;28;20115;-67
2021/09/25 07:05:16;;;;;;;11.32;8.57;;;;;;;18.48;78.08;100803.13;5090193;28;20472;-67
2021/09/25 07:07:41;;;;;;;12.98;8.65;;;;;;;18.75;74.58;100791.84;5105735;28;20036;-67
2021/09/25 07:10:07;;;;;;;11.48;8.18;;;;;;;18.88;75.16;100800.28;5088902;28;20036;-67
2021/09/25 07:12:33;;;;;;;12.63;7.75;;;;;;;19.16;72.54;100800.66;5090305;28;20052;-66
2021/09/25 07:14:59;;;;;;;11.48;7.97;;;;;;;19.39;71.15;100794.28;5090057;28;20067;-65
2021/09/25 07:17:27;;;;;;;11.15;8.13;;;;;;;19.47;71.48;100796.94;5105479;28;20042;-66
2021/09/25 07:19:53;;;;;;;10.68;7.95;;;;;;;19.58;71.54;100796.50;5088456;28;20088;-66
2021/09/25 07:22:18;;;;;;;10.90;7.38;;;;;;;19.82;70.41;100801.78;5090085;28;20543;-68
2021/09/25 07:24:44;;;;;;;9.90;7.32;;;;;;;20.09;68.48;100801.19;5089989;28;20050;-67
2021/09/25 07:27:09;;;;;;;10.95;7.82;;;;;;;20.26;66.88;100795.63;5089955;28;20392;-67
2021/09/25 07:29:35;;;;;;;10.48;7.20;;;;;;;20.50;67.05;100803.56;5089866;28;20085;-67
2021/09/25 07:32:00;;;;;;;11.00;7.07;;;;;;;20.72;65.55;100792.56;5089863;28;20040;-67
2021/09/25 07:34:27;;;;;;;8.25;6.45;;;;;;;21.01;64.29;100802.63;5089930;28;20027;-67
2021/09/25 07:36:53;;;;;;;12.63;6.95;;;;;;;21.35;62.40;100789.22;5089603;28;20028;-65
2021/09/25 07:39:18;;;;;;;7.35;5.82;;;;;;;21.74;62.24;100787.75;5089946;28;20042;-65
2021/09/25 07:41:44;;;;;;;7.43;6.15;;;;;;;22.96;57.05;100789.97;5089928;28;20028;-68
2021/09/25 07:44:10;;;;;;;7.30;5.35;;;;;;;24.33;53.54;100783.78;5089624;28;20036;-67
2021/09/25 07:46:36;;;;;;;7.20;5.40;;;;;;;25.30;50.26;100787.34;5089790;28;20031;-65
2021/09/25 07:49:01;;;;;;;6.28;5.40;;;;;;;26.24;47.77;100780.84;5089653;28;20036;-65
2021/09/25 07:51:28;;;;;;;6.47;4.85;;;;;;;27.22;45.23;100774.31;5105179;28;20051;-67
2021/09/25 07:53:54;;;;;;;6.00;4.68;;;;;;;28.42;42.33;100782.25;5089830;28;20446;-67
2021/09/25 07:56:20;;;;;;;5.25;4.70;;;;;;;29.40;40.19;100774.81;5089664;28;20127;-67
2021/09/25 07:58:46;;;;;;;4.90;4.40;;;;;;;30.31;38.51;100767.97;5088527;28;20035;-67
2021/09/25 08:01:11;;;;;;;4.63;4.18;;;;;;;31.29;36.49;100762.50;5089662;28;20119;-67
2021/09/25 08:03:37;;;;;;;4.93;4.35;;;;;;;31.92;35.48;100770.13;5089615;28;20024;-66
2021/09/25 08:06:02;;;;;;;5.10;4.05;;;;;;;32.71;33.89;100759.94;5088064;28;20081;-65
2021/09/25 08:08:28;;;;;;;5.45;3.45;;;;;;;33.34;32.68;100768.06;5089656;28;20050;-65
2021/09/25 08:10:53;;;;;;;3.95;3.47;;;;;;;34.02;31.13;100770.50;5088043;28;20044;-65
2021/09/25 08:13:19;;;;;;;5.72;4.03;;;;;;;34.12;31.28;100776.06;5089532;28;20022;-65
2021/09/25 08:15:44;;;;;;;4.60;4.03;;;;;;;34.24;31.12;100774.66;5087806;28;20067;-65
2021/09/25 08:18:10;;;;;;;4.90;3.80;;;;;;;34.56;30.80;100772.44;5089585;28;20102;-65
2021/09/25 08:20:35;;;;;;;3.63;3.33;;;;;;;34.79;30.19;100781.31;5089790;28;20036;-66
2021/09/25 08:23:02;;;;;;;3.65;3.30;;;;;;;35.08;29.59;100772.06;5091940;28;20547;-66
2021/09/25 08:25:27;;;;;;;5.80;3.60;;;;;;;35.40;29.33;100777.25;5093557;28;20031;-66
2021/09/25 08:27:53;;;;;;;3.60;3.10;;;;;;;35.78;28.67;100771.72;5093421;28;20097;-66
2021/09/25 08:30:19;;;;;;;5.20;4.10;;;;;;;36.17;27.82;100785.72;5093504;28;20039;-65
2021/09/25 08:32:46;;;;;;;8.68;3.97;;;;;;;36.26;27.89;100778.34;5093415;28;20027;-65
2021/09/25 08:35:12;;;;;;;7.00;4.40;;;;;;;36.56;27.26;100773.34;5091732;28;20032;-65
2021/09/25 08:37:39;;;;;;;5.57;3.60;;;;;;;37.04;26.93;100777.03;5093231;28;20042;-65
2021/09/25 08:40:08;;;;;;;3.55;3.25;;;;;;;37.36;26.70;100773.63;5090505;28;20045;-66
2021/09/25 08:42:34;;;;;;;4.40;3.05;;;;;;;37.46;26.28;100767.88;5091862;28;20024;-66
2021/09/25 08:45:00;;;;;;;5.22;4.13;;;;;;;37.88;25.77;100779.84;5093068;28;20022;-66
2021/09/25 08:47:25;;;;;;;5.10;4.22;;;;;;;37.92;25.49;100785.69;5093043;28;20024;-65
2021/09/25 08:49:51;;;;;;;4.30;3.45;;;;;;;38.07;25.89;100791.06;5092945;28;20077;-66
2021/09/25 08:52:17;;;;;;;5.57;3.45;;;;;;;38.22;25.65;100782.44;5093033;28;20020;-66
2021/09/25 08:54:43;;;;;;;4.05;3.72;;;;;;;38.26;25.70;100780.66;5093072;28;20059;-66
2021/09/25 08:57:08;;;;;;;4.45;3.55;;;;;;;38.31;25.62;100780.59;5092725;28;20579;-66
2021/09/25 08:59:34;;;;;;;5.53;4.10;;;;;;;38.48;25.05;100778.03;5092745;28;20027;-66
2021/09/25 09:02:17;;;;;;;4.70;3.67;;;;;;;38.48;25.24;100784.50;5092727;28;20028;-66
2021/09/25 09:04:49;;;;;;;5.13;3.55;;;;;;;38.59;24.74;100785.19;5092622;28;20024;-65
2021/09/25 09:07:19;;;;;;;5.18;3.28;;;;;;;38.60;24.97;100791.59;5092851;28;20103;-65
2021/09/25 09:09:47;;;;;;;6.70;3.35;;;;;;;38.47;24.57;100796.03;5092630;28;20027;-64
2021/09/25 09:12:13;;;;;;;4.85;4.10;;;;;;;38.36;25.49;100784.13;5092610;28;20107;-65
2021/09/25 09:14:47;;;;;;;4.10;3.67;;;;;;;38.16;25.50;100786.44;5092349;28;20024;-66
2021/09/25 09:17:15;;;;;;;4.07;3.67;;;;;;;37.89;25.52;100789.09;5092164;28;20423;-66
2021/09/25 09:19:41;;;;;;;3.85;3.30;;;;;;;37.59;25.91;100787.53;5090054;28;20056;-66
2021/09/25 09:22:07;;;;;;;4.93;3.70;;;;;;;37.58;25.94;100793.44;5092288;28;20056;-66
2021/09/25 09:25:05;;;;;;;6.05;4.13;;;;;;;37.35;26.53;100785.94;5092302;28;20016;-66
2021/09/25 09:27:30;;;;;;;6.78;4.28;;;;;;;36.78;26.99;100775.66;5079954;28;20096;-65
2021/09/25 09:30:10;;;;;;;5.38;4.60;;;;;;;36.16;27.86;100793.25;5092042;28;20048;-65
2021/09/25 09:32:45;;;;;;;5.45;3.58;;;;;;;35.32;29.10;100794.56;5092140;28;20107;-65
2021/09/25 09:35:15;;;;;;;6.07;4.00;;;;;;;34.50;29.95;100787.50;5092100;28;21070;-65
2021/09/25 09:37:40;;;;;;;5.15;4.07;;;;;;;33.64;31.26;100779.31;5091962;28;20023;-65
2021/09/25 09:40:07;;;;;;;6.72;4.20;;;;;;;32.97;32.14;100782.06;5091790;28;20039;-65
2021/09/25 09:42:41;;;;;;;8.55;4.43;;;;;;;32.57;32.52;100798.47;5092035;28;20415;-66
2021/09/25 09:45:08;;;;;;;6.22;4.35;;;;;;;31.54;34.20;100801.63;5090457;28;20612;-66
2021/09/25 09:47:46;;;;;;;6.20;5.00;;;;;;;30.94;35.33;100811.03;5092031;28;20035;-65
2021/09/25 09:50:13;;;;;;;6.80;4.70;;;;;;;30.41;36.48;100812.41;5091623;28;20047;-65
2021/09/25 09:52:39;;;;;;;6.70;3.90;;;;;;;29.73;37.27;100808.13;5091825;28;20063;-66
2021/09/25 09:55:06;;;;;;;7.40;3.83;;;;;;;29.37;37.72;100812.06;5090240;28;20063;-66
2021/09/25 09:57:34;;;;;;;5.43;3.90;;;;;;;28.94;38.44;100808.06;5091600;28;20039;-67
2021/09/25 09:59:59;;;;;;;5.82;3.95;;;;;;;28.55;39.68;100806.88;5090033;28;20038;-66
2021/09/25 10:02:25;;;;;;;6.55;3.80;;;;;;;28.19;40.62;100802.41;5091581;28;20020;-66
2021/09/25 10:04:51;;;;;;;7.72;5.05;;;;;;;27.89;40.82;100792.50;5091590;28;20046;-66
2021/09/25 10:07:18;;;;;;;6.55;4.10;;;;;;;27.69;40.74;100803.78;5091257;28;20077;-66
2021/09/25 10:09:43;;;;;;;6.25;4.55;;;;;;;27.58;40.89;100801.81;5091292;28;20024;-66
2021/09/25 10:12:12;;;;;;;5.32;4.13;;;;;;;27.34;41.09;100802.75;5091108;28;20050;-66
2021/09/25 10:14:40;;;;;;;6.68;4.30;;;;;;;27.24;41.95;100809.91;5091104;28;20032;-65
2021/09/25 10:17:08;;;;;;;5.10;4.03;;;;;;;27.10;41.69;100820.22;5090912;28;20040;-66
2021/09/25 10:19:36;;;;;;;8.27;3.85;;;;;;;26.89;42.03;100819.81;5091091;28;20058;-65
2021/09/25 10:22:09;;;;;;;4.15;3.70;;;;;;;26.80;42.50;100823.94;5091032;28;20031;-66
2021/09/25 10:24:38;;;;;;;4.82;3.58;;;;;;;26.62;42.39;100812.88;5106765;28;20051;-66
2021/09/25 10:27:05;;;;;;;8.82;4.88;;;;;;;26.57;42.87;100819.06;5090845;28;20522;-65
2021/09/25 10:29:32;;;;;;;6.22;4.50;;;;;;;26.45;43.73;100818.13;5106725;28;20044;-66
2021/09/25 10:32:16;;;;;;;5.22;4.45;;;;;;;26.36;43.45;100811.22;5090669;28;20063;-65
2021/09/25 10:35:04;;;;;;;6.82;4.57;;;;;;;26.17;43.46;100804.81;5090997;28;20369;-66
2021/09/25 10:37:46;;;;;;;7.10;4.78;;;;;;;26.10;43.53;100816.94;5090849;28;20019;-65
2021/09/25 10:40:17;;;;;;;5.88;4.35;;;;;;;26.00;44.04;100811.94;5106294;28;20491;-66
2021/09/25 10:42:49;;;;;;;5.72;4.40;;;;;;;25.92;44.58;100809.41;5090060;28;20024;-65
2021/09/25 10:45:27;;;;;;;8.40;4.93;;;;;;;25.74;44.00;100801.09;5090439;28;20533;-65
2021/09/25 10:48:21;;;;;;;8.73;4.45;;;;;;;25.62;44.29;100802.00;5089115;28;20042;-65
2021/09/25 10:50:56;;;;;;;5.50;4.70;;;;;;;25.56;44.27;100798.22;5089897;28;20540;-65
2021/09/25 10:53:27;;;;;;;4.65;3.92;;;;;;;25.52;44.22;100798.88;5090180;28;20056;-65
2021/09/25 10:55:55;;;;;;;5.70;4.65;;;;;;;25.44;44.65;100804.66;5090746;28;20052;-65
2021/09/25 10:58:23;;;;;;;5.43;4.43;;;;;;;25.40;44.82;100806.13;5090598;28;20035;-65
2021/09/25 11:00:51;;;;;;;6.97;5.28;;;;;;;25.32;44.84;100801.75;5090366;28;20031;-65
2021/09/25 11:03:42;;;;;;;7.50;5.45;;;;;;;25.33;44.63;100808.06;5088752;28;20032;-65
2021/09/25 11:06:15;;;;;;;6.20;4.70;;;;;;;25.28;44.51;100805.13;5090249;28;20035;-65
2021/09/25 11:08:58;;;;;;;5.70;5.18;;;;;;;25.23;44.74;100804.91;5090335;28;20030;-65
2021/09/25 11:11:34;;;;;;;6.22;5.45;;;;;;;25.23;44.81;100802.16;5090270;28;20089;-65
2021/09/25 11:14:00;;;;;;;6.25;5.05;;;;;;;25.17;45.35;100798.38;5085971;28;20101;-66
2021/09/25 11:16:50;;;;;;;6.28;5.05;;;;;;;25.20;44.60;100803.44;5089338;28;20131;-66
2021/09/25 11:19:21;;;;;;;6.55;5.10;;;;;;;25.15;44.80;100794.19;5105145;28;20035;-66
2021/09/25 11:22:08;;;;;;;6.70;4.60;;;;;;;25.11;44.88;100793.75;5105186;28;20033;-66